sensor_id;sensor_type;location;lat;lon;timestamp;pressure;altitude;pressure_sealevel;temperature;humidity
29371;BME280;16357;52.188;7.838;2024-03-23T00:53:17;100207.69;;;10.62;70.28
29371;BME280;16357;52.188;7.838;2024-03-23T00:55:43;100196.97;;;10.62;70.63
29371;BME280;16357;52.188;7.838;2024-03-23T00:58:09;100188.91;;;10.62;70.25
29371;BME280;16357;52.188;7.838;2024-03-23T01:00:34;100185.22;;;10.63;70.34
29371;BME280;16357;52.188;7.838;2024-03-23T01:03:00;100182.53;;;10.63;70.27
29371;BME280;16357;52.188;7.838;2024-03-23T01:05:26;100182.53;;;10.63;70.17
29371;BME280;16357;52.188;7.838;2024-03-23T01:07:51;100181.53;;;10.64;70.13
29371;BME280;16357;52.188;7.838;2024-03-23T01:10:17;100172.81;;;10.62;69.77
29371;BME280;16357;52.188;7.838;2024-03-23T01:12:42;100177.50;;;10.60;69.93
29371;BME280;16357;52.188;7.838;2024-03-23T01:15:08;100180.19;;;10.60;70.01
29371;BME280;16357;52.188;7.838;2024-03-23T01:17:34;100168.78;;;10.58;69.70
29371;BME280;16357;52.188;7.838;2024-03-23T01:19:59;100177.88;;;10.57;69.67
29371;BME280;16357;52.188;7.838;2024-03-23T01:22:25;100171.47;;;10.58;69.82
29371;BME280;16357;52.188;7.838;2024-03-23T01:24:50;100169.97;;;10.55;69.74
29371;BME280;16357;52.188;7.838;2024-03-23T01:27:16;100169.16;;;10.54;69.28
29371;BME280;16357;52.188;7.838;2024-03-23T01:29:41;100167.47;;;10.53;69.29
29371;BME280;16357;52.188;7.838;2024-03-23T01:32:07;100172.16;;;10.51;69.17
29371;BME280;16357;52.188;7.838;2024-03-23T01:34:33;100175.84;;;10.50;68.92
29371;BME280;16357;52.188;7.838;2024-03-23T01:36:58;100173.16;;;10.50;69.28
29371;BME280;16357;52.188;7.838;2024-03-23T01:39:24;100168.13;;;10.47;69.12
29371;BME280;16357;52.188;7.838;2024-03-23T01:41:50;100158.44;;;10.46;69.09
29371;BME280;16357;52.188;7.838;2024-03-23T01:44:17;100165.81;;;10.44;68.91
29371;BME280;16357;52.188;7.838;2024-03-23T01:46:43;100165.13;;;10.42;68.65
29371;BME280;16357;52.188;7.838;2024-03-23T01:49:10;100163.63;;;10.40;68.57
29371;BME280;16357;52.188;7.838;2024-03-23T01:51:36;100162.13;;;10.37;68.73
29371;BME280;16357;52.188;7.838;2024-03-23T01:54:03;100159.63;;;10.36;68.77
29371;BME280;16357;52.188;7.838;2024-03-23T01:56:30;100153.75;;;10.32;68.59
29371;BME280;16357;52.188;7.838;2024-03-23T01:58:58;100155.78;;;10.30;68.64
29371;BME280;16357;52.188;7.838;2024-03-23T02:01:23;100155.22;;;10.26;68.55
29371;BME280;16357;52.188;7.838;2024-03-23T02:03:49;100146.69;;;10.23;68.52
29371;BME280;16357;52.188;7.838;2024-03-23T02:06:14;100138.16;;;10.19;68.65
29371;BME280;16357;52.188;7.838;2024-03-23T02:08:40;100139.34;;;10.17;68.54
29371;BME280;16357;52.188;7.838;2024-03-23T02:11:06;100129.78;;;10.14;68.66
29371;BME280;16357;52.188;7.838;2024-03-23T02:13:31;100126.44;;;10.12;68.98
29371;BME280;16357;52.188;7.838;2024-03-23T02:15:57;100122.25;;;10.09;69.43
29371;BME280;16357;52.188;7.838;2024-03-23T02:18:22;100131.31;;;10.08;69.14
29371;BME280;16357;52.188;7.838;2024-03-23T02:20:48;100129.63;;;10.07;69.00
29371;BME280;16357;52.188;7.838;2024-03-23T02:23:14;100129.81;;;10.06;69.19
29371;BME280;16357;52.188;7.838;2024-03-23T02:25:40;100131.63;;;10.05;68.88
29371;BME280;16357;52.188;7.838;2024-03-23T02:28:06;100123.75;;;10.04;68.88
29371;BME280;16357;52.188;7.838;2024-03-23T02:30:31;100126.59;;;10.02;68.58
29371;BME280;16357;52.188;7.838;2024-03-23T02:32:57;100114.22;;;10.01;68.69
29371;BME280;16357;52.188;7.838;2024-03-23T02:35:22;100123.25;;;10.00;68.97
29371;BME280;16357;52.188;7.838;2024-03-23T02:37:48;100119.91;;;9.98;69.06
29371;BME280;16357;52.188;7.838;2024-03-23T02:40:17;100106.69;;;9.97;68.92
29371;BME280;16357;52.188;7.838;2024-03-23T02:42:43;100112.03;;;9.97;68.63
29371;BME280;16357;52.188;7.838;2024-03-23T02:45:09;100117.53;;;9.95;69.23
29371;BME280;16357;52.188;7.838;2024-03-23T02:47:34;100114.03;;;9.95;69.31
29371;BME280;16357;52.188;7.838;2024-03-23T02:50:00;100109.84;;;9.92;69.30
29371;BME280;16357;52.188;7.838;2024-03-23T02:52:25;100103.66;;;9.92;69.18
29371;BME280;16357;52.188;7.838;2024-03-23T02:54:51;100100.16;;;9.91;69.42
29371;BME280;16357;52.188;7.838;2024-03-23T02:57:17;100097.47;;;9.91;69.37
29371;BME280;16357;52.188;7.838;2024-03-23T02:59:42;100099.31;;;9.91;69.47
29371;BME280;16357;52.188;7.838;2024-03-23T03:02:08;100101.16;;;9.90;69.40
29371;BME280;16357;52.188;7.838;2024-03-23T03:04:33;100098.50;;;9.90;69.22
29371;BME280;16357;52.188;7.838;2024-03-23T03:06:59;100093.28;;;9.88;69.02
29371;BME280;16357;52.188;7.838;2024-03-23T03:09:24;100092.44;;;9.88;69.54
29371;BME280;16357;52.188;7.838;2024-03-23T03:11:50;100078.38;;;9.86;69.50
29371;BME280;16357;52.188;7.838;2024-03-23T03:14:15;100076.72;;;9.85;69.33
29371;BME280;16357;52.188;7.838;2024-03-23T03:16:41;100090.13;;;9.85;69.28
29371;BME280;16357;52.188;7.838;2024-03-23T03:19:06;100099.31;;;9.82;69.06
29371;BME280;16357;52.188;7.838;2024-03-23T03:21:32;100097.81;;;9.80;68.98
29371;BME280;16357;52.188;7.838;2024-03-23T03:23:58;100087.25;;;9.78;68.89
29371;BME280;16357;52.188;7.838;2024-03-23T03:26:23;100095.28;;;9.78;68.85
29371;BME280;16357;52.188;7.838;2024-03-23T03:28:50;100083.06;;;9.76;68.82
29371;BME280;16357;52.188;7.838;2024-03-23T03:31:15;100076.06;;;9.75;69.44
29371;BME280;16357;52.188;7.838;2024-03-23T03:33:42;100077.72;;;9.76;68.88
29371;BME280;16357;52.188;7.838;2024-03-23T03:36:08;100077.72;;;9.76;69.20
29371;BME280;16357;52.188;7.838;2024-03-23T03:38:33;100077.72;;;9.76;69.04
29371;BME280;16357;52.188;7.838;2024-03-23T03:41:01;100083.06;;;9.76;69.07
29371;BME280;16357;52.188;7.838;2024-03-23T03:43:27;100079.56;;;9.75;69.31
29371;BME280;16357;52.188;7.838;2024-03-23T03:45:53;100088.44;;;9.76;69.01
29371;BME280;16357;52.188;7.838;2024-03-23T03:48:19;100095.63;;;9.75;69.16
29371;BME280;16357;52.188;7.838;2024-03-23T03:50:45;100092.13;;;9.75;69.14
29371;BME280;16357;52.188;7.838;2024-03-23T03:53:11;100084.09;;;9.75;68.89
29371;BME280;16357;52.188;7.838;2024-03-23T03:55:36;100071.53;;;9.75;69.34
29371;BME280;16357;52.188;7.838;2024-03-23T03:58:02;100071.69;;;9.74;69.34
29371;BME280;16357;52.188;7.838;2024-03-23T04:00:27;100076.19;;;9.73;69.24
29371;BME280;16357;52.188;7.838;2024-03-23T04:02:53;100074.53;;;9.72;69.18
29371;BME280;16357;52.188;7.838;2024-03-23T04:05:18;100064.81;;;9.71;69.39
29371;BME280;16357;52.188;7.838;2024-03-23T04:07:45;100065.84;;;9.70;69.37
29371;BME280;16357;52.188;7.838;2024-03-23T04:10:10;100071.34;;;9.68;69.27
29371;BME280;16357;52.188;7.838;2024-03-23T04:12:36;100068.84;;;9.67;69.33
29371;BME280;16357;52.188;7.838;2024-03-23T04:15:02;100056.63;;;9.64;69.41
29371;BME280;16357;52.188;7.838;2024-03-23T04:17:29;100043.25;;;9.64;69.21
29371;BME280;16357;52.188;7.838;2024-03-23T04:19:57;100039.88;;;9.62;68.87
29371;BME280;16357;52.188;7.838;2024-03-23T04:22:23;100031.19;;;9.60;68.85
29371;BME280;16357;52.188;7.838;2024-03-23T04:24:56;100050.94;;;9.59;68.92
29371;BME280;16357;52.188;7.838;2024-03-23T04:27:22;100057.47;;;9.57;68.88
29371;BME280;16357;52.188;7.838;2024-03-23T04:29:49;100058.63;;;9.54;69.17
29371;BME280;16357;52.188;7.838;2024-03-23T04:32:15;100059.66;;;9.53;69.29
29371;BME280;16357;52.188;7.838;2024-03-23T04:34:41;100061.81;;;9.50;69.14
29371;BME280;16357;52.188;7.838;2024-03-23T04:37:07;100060.28;;;9.47;69.32
29371;BME280;16357;52.188;7.838;2024-03-23T04:39:33;100055.13;;;9.45;69.24
29371;BME280;16357;52.188;7.838;2024-03-23T04:41:58;100051.75;;;9.43;69.24
29371;BME280;16357;52.188;7.838;2024-03-23T04:44:24;100059.13;;;9.41;69.11
29371;BME280;16357;52.188;7.838;2024-03-23T04:46:49;100048.75;;;9.38;69.39
29371;BME280;16357;52.188;7.838;2024-03-23T04:49:15;100055.28;;;9.36;69.58
29371;BME280;16357;52.188;7.838;2024-03-23T04:51:41;100044.91;;;9.33;69.38
29371;BME280;16357;52.188;7.838;2024-03-23T04:54:12;100044.22;;;9.31;69.32
29371;BME280;16357;52.188;7.838;2024-03-23T04:56:37;100039.00;;;9.29;69.58
29371;BME280;16357;52.188;7.838;2024-03-23T04:59:03;100035.84;;;9.26;69.32
29371;BME280;16357;52.188;7.838;2024-03-23T05:01:31;100043.19;;;9.23;69.38
29371;BME280;16357;52.188;7.838;2024-03-23T05:03:57;100030.97;;;9.21;69.27
29371;BME280;16357;52.188;7.838;2024-03-23T05:06:23;100046.53;;;9.17;69.36
29371;BME280;16357;52.188;7.838;2024-03-23T05:08:48;100042.50;;;9.13;69.46
29371;BME280;16357;52.188;7.838;2024-03-23T05:11:15;100048.88;;;9.12;69.94
29371;BME280;16357;52.188;7.838;2024-03-23T05:13:41;100049.19;;;9.09;70.08
29371;BME280;16357;52.188;7.838;2024-03-23T05:16:07;100044.84;;;9.08;70.51
29371;BME280;16357;52.188;7.838;2024-03-23T05:18:32;100049.19;;;9.09;70.21
29371;BME280;16357;52.188;7.838;2024-03-23T05:20:58;100048.38;;;9.09;70.43
29371;BME280;16357;52.188;7.838;2024-03-23T05:23:24;100047.50;;;9.08;70.13
29371;BME280;16357;52.188;7.838;2024-03-23T05:25:50;100039.47;;;9.08;70.65
29371;BME280;16357;52.188;7.838;2024-03-23T05:28:17;100034.13;;;9.08;70.43
29371;BME280;16357;52.188;7.838;2024-03-23T05:30:43;100033.31;;;9.08;70.24
29371;BME280;16357;52.188;7.838;2024-03-23T05:33:09;100037.81;;;9.07;70.28
29371;BME280;16357;52.188;7.838;2024-03-23T05:35:34;100038.84;;;9.06;70.11
29371;BME280;16357;52.188;7.838;2024-03-23T05:38:00;100037.13;;;9.05;69.94
29371;BME280;16357;52.188;7.838;2024-03-23T05:40:26;100038.47;;;9.01;70.15
29371;BME280;16357;52.188;7.838;2024-03-23T05:42:52;100038.63;;;8.99;69.92
29371;BME280;16357;52.188;7.838;2024-03-23T05:45:19;100035.28;;;8.97;69.64
29371;BME280;16357;52.188;7.838;2024-03-23T05:47:44;100042.66;;;8.95;69.97
29371;BME280;16357;52.188;7.838;2024-03-23T05:50:10;100045.81;;;8.91;69.96
29371;BME280;16357;52.188;7.838;2024-03-23T05:52:38;100047.81;;;8.89;69.97
29371;BME280;16357;52.188;7.838;2024-03-23T05:55:05;100044.63;;;8.85;70.33
29371;BME280;16357;52.188;7.838;2024-03-23T05:57:30;100046.63;;;8.83;70.14
29371;BME280;16357;52.188;7.838;2024-03-23T05:59:56;100042.44;;;8.81;70.02
29371;BME280;16357;52.188;7.838;2024-03-23T06:02:22;100046.25;;;8.78;70.23
29371;BME280;16357;52.188;7.838;2024-03-23T06:04:48;100049.09;;;8.76;70.28
29371;BME280;16357;52.188;7.838;2024-03-23T06:07:13;100050.09;;;8.75;70.19
29371;BME280;16357;52.188;7.838;2024-03-23T06:09:41;100048.44;;;8.74;70.41
29371;BME280;16357;52.188;7.838;2024-03-23T06:12:07;100054.78;;;8.73;70.88
29371;BME280;16357;52.188;7.838;2024-03-23T06:14:32;100051.25;;;8.73;70.76
29371;BME280;16357;52.188;7.838;2024-03-23T06:16:59;100054.78;;;8.73;71.19
29371;BME280;16357;52.188;7.838;2024-03-23T06:19:25;100043.91;;;8.75;71.27
29371;BME280;16357;52.188;7.838;2024-03-23T06:21:53;100049.09;;;8.76;71.13
29371;BME280;16357;52.188;7.838;2024-03-23T06:24:21;100048.78;;;8.79;71.36
29371;BME280;16357;52.188;7.838;2024-03-23T06:26:47;100050.44;;;8.81;71.16
29371;BME280;16357;52.188;7.838;2024-03-23T06:29:13;100047.44;;;8.84;71.53
29371;BME280;16357;52.188;7.838;2024-03-23T06:31:38;100055.97;;;8.87;71.51
29371;BME280;16357;52.188;7.838;2024-03-23T06:34:04;100053.84;;;8.91;71.55
29371;BME280;16357;52.188;7.838;2024-03-23T06:36:30;100062.22;;;8.96;71.55
29371;BME280;16357;52.188;7.838;2024-03-23T06:38:56;100053.84;;;8.99;71.41
29371;BME280;16357;52.188;7.838;2024-03-23T06:41:22;100049.53;;;9.06;71.64
29371;BME280;16357;52.188;7.838;2024-03-23T06:43:47;100057.03;;;9.11;71.53
29371;BME280;16357;52.188;7.838;2024-03-23T06:46:13;100056.56;;;9.15;71.21
29371;BME280;16357;52.188;7.838;2024-03-23T06:48:39;100049.91;;;9.19;71.00
29371;BME280;16357;52.188;7.838;2024-03-23T06:51:04;100046.88;;;9.22;70.44
29371;BME280;16357;52.188;7.838;2024-03-23T06:53:30;100051.06;;;9.25;70.41
29371;BME280;16357;52.188;7.838;2024-03-23T06:55:55;100051.75;;;9.27;70.31
29371;BME280;16357;52.188;7.838;2024-03-23T06:58:22;100051.75;;;9.27;70.42
29371;BME280;16357;52.188;7.838;2024-03-23T07:00:48;100066.66;;;9.30;70.51
29371;BME280;16357;52.188;7.838;2024-03-23T07:03:14;100055.06;;;9.29;70.58
29371;BME280;16357;52.188;7.838;2024-03-23T07:05:40;100057.59;;;9.31;70.37
29371;BME280;16357;52.188;7.838;2024-03-23T07:08:05;100053.06;;;9.31;70.16
29371;BME280;16357;52.188;7.838;2024-03-23T07:10:31;100055.59;;;9.33;70.33
29371;BME280;16357;52.188;7.838;2024-03-23T07:12:57;100057.44;;;9.32;70.23
29371;BME280;16357;52.188;7.838;2024-03-23T07:15:22;100050.25;;;9.33;69.94
29371;BME280;16357;52.188;7.838;2024-03-23T07:17:48;100049.22;;;9.34;69.94
29371;BME280;16357;52.188;7.838;2024-03-23T07:20:13;100057.25;;;9.34;69.69
29371;BME280;16357;52.188;7.838;2024-03-23T07:22:39;100051.06;;;9.33;70.00
29371;BME280;16357;52.188;7.838;2024-03-23T07:25:05;100052.75;;;9.34;70.38
29371;BME280;16357;52.188;7.838;2024-03-23T07:27:32;100045.56;;;9.35;70.44
29371;BME280;16357;52.188;7.838;2024-03-23T07:29:57;100049.75;;;9.37;70.70
29371;BME280;16357;52.188;7.838;2024-03-23T07:32:23;100050.94;;;9.43;70.84
29371;BME280;16357;52.188;7.838;2024-03-23T07:34:48;100043.41;;;9.47;70.42
29371;BME280;16357;52.188;7.838;2024-03-23T07:37:14;100046.41;;;9.52;70.51
29371;BME280;16357;52.188;7.838;2024-03-23T07:39:40;100045.91;;;9.56;70.30
29371;BME280;16357;52.188;7.838;2024-03-23T07:42:06;100047.09;;;9.62;70.06
29371;BME280;16357;52.188;7.838;2024-03-23T07:44:31;100052.59;;;9.68;70.10
29371;BME280;16357;52.188;7.838;2024-03-23T07:46:59;100049.41;;;9.73;69.65
29371;BME280;16357;52.188;7.838;2024-03-23T07:49:24;100045.22;;;9.79;69.06
29371;BME280;16357;52.188;7.838;2024-03-23T07:51:50;100047.56;;;9.82;68.82
29371;BME280;16357;52.188;7.838;2024-03-23T07:54:15;100044.38;;;9.86;69.05
29371;BME280;16357;52.188;7.838;2024-03-23T07:56:41;100041.88;;;9.93;69.14
29371;BME280;16357;52.188;7.838;2024-03-23T07:59:06;100038.84;;;9.96;69.27
29371;BME280;16357;52.188;7.838;2024-03-23T08:01:32;100048.72;;;10.04;68.83
29371;BME280;16357;52.188;7.838;2024-03-23T08:03:57;100045.19;;;10.11;68.51
29371;BME280;16357;52.188;7.838;2024-03-23T08:06:23;100042.50;;;10.20;68.30
29371;BME280;16357;52.188;7.838;2024-03-23T08:08:54;100047.72;;;10.29;67.28
29371;BME280;16357;52.188;7.838;2024-03-23T08:11:29;100036.44;;;10.34;66.13
29371;BME280;16357;52.188;7.838;2024-03-23T08:13:55;100047.69;;;10.38;65.54
29371;BME280;16357;52.188;7.838;2024-03-23T08:16:21;100034.75;;;10.41;65.16
29371;BME280;16357;52.188;7.838;2024-03-23T08:18:46;100032.75;;;10.43;64.71
29371;BME280;16357;52.188;7.838;2024-03-23T08:21:12;100037.75;;;10.46;64.99
29371;BME280;16357;52.188;7.838;2024-03-23T08:23:38;100031.22;;;10.49;65.37
29371;BME280;16357;52.188;7.838;2024-03-23T08:26:12;100037.72;;;10.54;65.23
29371;BME280;16357;52.188;7.838;2024-03-23T08:28:38;100038.03;;;10.60;65.05
29371;BME280;16357;52.188;7.838;2024-03-23T08:31:06;100033.00;;;10.65;65.16
29371;BME280;16357;52.188;7.838;2024-03-23T08:33:32;100044.88;;;10.70;64.76
29371;BME280;16357;52.188;7.838;2024-03-23T08:36:00;100034.28;;;10.77;65.33
29371;BME280;16357;52.188;7.838;2024-03-23T08:38:27;100042.28;;;10.85;65.46
29371;BME280;16357;52.188;7.838;2024-03-23T08:40:57;100026.81;;;10.95;64.51
29371;BME280;16357;52.188;7.838;2024-03-23T08:43:23;100027.75;;;11.03;63.21
29371;BME280;16357;52.188;7.838;2024-03-23T08:45:49;100034.09;;;11.10;63.08
29371;BME280;16357;52.188;7.838;2024-03-23T08:48:15;100033.38;;;11.16;62.98
29371;BME280;16357;52.188;7.838;2024-03-23T08:50:41;100030.16;;;11.20;62.39
29371;BME280;16357;52.188;7.838;2024-03-23T08:53:06;100034.34;;;11.23;62.10
29371;BME280;16357;52.188;7.838;2024-03-23T08:55:32;100034.34;;;11.23;59.97
29371;BME280;16357;52.188;7.838;2024-03-23T08:57:57;100028.31;;;11.21;59.52
29371;BME280;16357;52.188;7.838;2024-03-23T09:00:23;100031.56;;;11.16;59.52
29371;BME280;16357;52.188;7.838;2024-03-23T09:02:48;100027.69;;;11.11;59.72
29371;BME280;16357;52.188;7.838;2024-03-23T09:05:14;100036.31;;;11.06;60.26
29371;BME280;16357;52.188;7.838;2024-03-23T09:07:39;100030.63;;;11.01;59.93
29371;BME280;16357;52.188;7.838;2024-03-23T09:10:05;100030.13;;;10.97;59.55
29371;BME280;16357;52.188;7.838;2024-03-23T09:12:30;100034.00;;;10.95;59.87
29371;BME280;16357;52.188;7.838;2024-03-23T09:14:56;100025.13;;;10.94;60.48
29371;BME280;16357;52.188;7.838;2024-03-23T09:17:21;100044.41;;;10.98;61.11
29371;BME280;16357;52.188;7.838;2024-03-23T09:19:47;100025.75;;;11.05;61.67
29371;BME280;16357;52.188;7.838;2024-03-23T09:22:12;100027.00;;;11.17;61.37
29371;BME280;16357;52.188;7.838;2024-03-23T09:24:38;100022.88;;;11.29;60.20
29371;BME280;16357;52.188;7.838;2024-03-23T09:27:04;100026.84;;;11.41;59.97
29371;BME280;16357;52.188;7.838;2024-03-23T09:29:30;100023.91;;;11.51;59.09
29371;BME280;16357;52.188;7.838;2024-03-23T09:31:55;100037.06;;;11.61;58.34
29371;BME280;16357;52.188;7.838;2024-03-23T09:34:21;100020.41;;;11.65;56.96
29371;BME280;16357;52.188;7.838;2024-03-23T09:36:47;100024.22;;;11.71;57.10
29371;BME280;16357;52.188;7.838;2024-03-23T09:39:13;100014.13;;;11.73;56.28
29371;BME280;16357;52.188;7.838;2024-03-23T09:41:39;100036.09;;;11.77;56.35
29371;BME280;16357;52.188;7.838;2024-03-23T09:44:05;100018.78;;;11.79;56.48
29371;BME280;16357;52.188;7.838;2024-03-23T09:46:31;100020.94;;;11.84;56.04
29371;BME280;16357;52.188;7.838;2024-03-23T09:49:00;100026.81;;;11.88;55.87
29371;BME280;16357;52.188;7.838;2024-03-23T09:51:26;100030.50;;;11.86;55.92
29371;BME280;16357;52.188;7.838;2024-03-23T09:53:52;100024.16;;;11.79;56.51
29371;BME280;16357;52.188;7.838;2024-03-23T09:56:18;100019.41;;;11.67;55.73
29371;BME280;16357;52.188;7.838;2024-03-23T09:58:44;100017.06;;;11.49;56.07
29371;BME280;16357;52.188;7.838;2024-03-23T10:01:10;100014.00;;;11.29;56.53
29371;BME280;16357;52.188;7.838;2024-03-23T10:03:43;100010.97;;;11.09;57.39
29371;BME280;16357;52.188;7.838;2024-03-23T10:06:09;100009.38;;;10.91;59.37
29371;BME280;16357;52.188;7.838;2024-03-23T10:08:34;100002.72;;;10.79;59.35
29371;BME280;16357;52.188;7.838;2024-03-23T10:11:14;100010.47;;;10.74;60.16
29371;BME280;16357;52.188;7.838;2024-03-23T10:13:44;100032.28;;;10.71;60.40
29371;BME280;16357;52.188;7.838;2024-03-23T10:16:12;100108.41;;;10.70;60.00
29371;BME280;16357;52.188;7.838;2024-03-23T10:18:38;100038.53;;;10.63;59.17
29371;BME280;16357;52.188;7.838;2024-03-23T10:21:10;100031.38;;;10.47;58.51
29371;BME280;16357;52.188;7.838;2024-03-23T10:23:38;100027.41;;;10.27;59.28
29371;BME280;16357;52.188;7.838;2024-03-23T10:26:24;100026.13;;;9.98;60.43
29371;BME280;16357;52.188;7.838;2024-03-23T10:31:36;100020.47;;;9.60;63.09
29371;BME280;16357;52.188;7.838;2024-03-23T10:34:03;100014.28;;;9.52;63.85
29371;BME280;16357;52.188;7.838;2024-03-23T10:36:29;100017.13;;;9.50;64.13
29371;BME280;16357;52.188;7.838;2024-03-23T10:38:56;100015.31;;;9.51;64.86
29371;BME280;16357;52.188;7.838;2024-03-23T10:41:27;100022.66;;;9.57;65.19
29371;BME280;16357;52.188;7.838;2024-03-23T10:43:55;100009.09;;;9.66;65.17
29371;BME280;16357;52.188;7.838;2024-03-23T10:46:21;100006.06;;;9.78;64.92
29371;BME280;16357;52.188;7.838;2024-03-23T10:48:47;100010.91;;;9.91;64.62
29371;BME280;16357;52.188;7.838;2024-03-23T10:51:14;100007.69;;;10.03;65.56
29371;BME280;16357;52.188;7.838;2024-03-23T10:53:39;100006.97;;;10.18;65.25
29371;BME280;16357;52.188;7.838;2024-03-23T10:56:06;100008.66;;;10.35;64.02
29371;BME280;16357;52.188;7.838;2024-03-23T10:58:38;99996.84;;;10.52;64.26
29371;BME280;16357;52.188;7.838;2024-03-23T11:01:03;99986.22;;;10.67;64.40
29371;BME280;16357;52.188;7.838;2024-03-23T11:03:39;99990.13;;;10.88;63.46
29371;BME280;16357;52.188;7.838;2024-03-23T11:06:06;99980.78;;;11.07;62.64
29371;BME280;16357;52.188;7.838;2024-03-23T11:08:37;99990.66;;;11.29;61.88
29371;BME280;16357;52.188;7.838;2024-03-23T11:11:22;99964.16;;;11.49;59.37
29371;BME280;16357;52.188;7.838;2024-03-23T11:13:53;99992.06;;;11.63;59.33
29371;BME280;16357;52.188;7.838;2024-03-23T11:16:24;100000.72;;;11.73;58.07
29371;BME280;16357;52.188;7.838;2024-03-23T11:18:51;100003.03;;;11.76;56.61
29371;BME280;16357;52.188;7.838;2024-03-23T11:21:54;99991.66;;;11.74;56.67
29371;BME280;16357;52.188;7.838;2024-03-23T11:24:21;99989.66;;;11.68;56.54
29371;BME280;16357;52.188;7.838;2024-03-23T11:26:48;99995.78;;;11.62;55.95
29371;BME280;16357;52.188;7.838;2024-03-23T11:29:15;99991.31;;;11.54;56.36
29371;BME280;16357;52.188;7.838;2024-03-23T11:31:46;99987.31;;;11.50;57.34
29371;BME280;16357;52.188;7.838;2024-03-23T11:34:13;99981.00;;;11.43;56.28
29371;BME280;16357;52.188;7.838;2024-03-23T11:36:40;99971.47;;;11.40;56.60
29371;BME280;16357;52.188;7.838;2024-03-23T11:39:19;99982.56;;;11.37;56.81
29371;BME280;16357;52.188;7.838;2024-03-23T11:41:56;99976.91;;;11.32;57.31
29371;BME280;16357;52.188;7.838;2024-03-23T11:44:23;99975.22;;;11.31;57.31
29371;BME280;16357;52.188;7.838;2024-03-23T11:46:50;99972.88;;;11.28;57.02
29371;BME280;16357;52.188;7.838;2024-03-23T11:49:26;99979.91;;;11.29;57.62
29371;BME280;16357;52.188;7.838;2024-03-23T11:51:52;99975.41;;;11.30;57.43
29371;BME280;16357;52.188;7.838;2024-03-23T11:54:24;99968.84;;;11.32;57.02
29371;BME280;16357;52.188;7.838;2024-03-23T11:57:00;99961.41;;;11.34;57.00
29371;BME280;16357;52.188;7.838;2024-03-23T11:59:33;99959.59;;;11.35;57.18
29371;BME280;16357;52.188;7.838;2024-03-23T12:01:59;99964.31;;;11.33;56.12
29371;BME280;16357;52.188;7.838;2024-03-23T12:04:28;99963.47;;;11.32;55.83
29371;BME280;16357;52.188;7.838;2024-03-23T12:07:12;99967.16;;;11.31;55.12
29371;BME280;16357;52.188;7.838;2024-03-23T12:09:38;99953.06;;;11.29;55.71
29371;BME280;16357;52.188;7.838;2024-03-23T12:14:33;99953.94;;;11.30;55.27
29371;BME280;16357;52.188;7.838;2024-03-23T12:17:13;99945.69;;;11.31;55.04
29371;BME280;16357;52.188;7.838;2024-03-23T12:19:40;99987.44;;;11.34;55.00
29371;BME280;16357;52.188;7.838;2024-03-23T12:22:06;100002.72;;;11.33;55.70
29371;BME280;16357;52.188;7.838;2024-03-23T12:24:32;100021.59;;;11.25;54.14
29371;BME280;16357;52.188;7.838;2024-03-23T12:27:04;100035.81;;;11.03;52.96
29371;BME280;16357;52.188;7.838;2024-03-23T12:29:31;100054.81;;;10.62;54.45
29371;BME280;16357;52.188;7.838;2024-03-23T12:31:59;100029.75;;;10.14;56.20
29371;BME280;16357;52.188;7.838;2024-03-23T12:34:26;100017.28;;;9.65;58.00
29371;BME280;16357;52.188;7.838;2024-03-23T12:36:52;99994.19;;;9.23;59.91
29371;BME280;16357;52.188;7.838;2024-03-23T12:39:17;100005.84;;;8.89;61.60
29371;BME280;16357;52.188;7.838;2024-03-23T12:41:43;99999.59;;;8.64;63.23
29371;BME280;16357;52.188;7.838;2024-03-23T12:44:09;100008.53;;;8.47;63.57
29371;BME280;16357;52.188;7.838;2024-03-23T12:46:38;100012.31;;;8.36;64.44
29371;BME280;16357;52.188;7.838;2024-03-23T12:49:04;100010.94;;;8.32;65.72
29371;BME280;16357;52.188;7.838;2024-03-23T12:51:29;100013.47;;;8.33;66.66
29371;BME280;16357;52.188;7.838;2024-03-23T12:53:55;100005.69;;;8.40;67.09
29371;BME280;16357;52.188;7.838;2024-03-23T12:56:20;100003.06;;;8.48;66.49
29371;BME280;16357;52.188;7.838;2024-03-23T12:58:46;99995.06;;;8.56;65.64
29371;BME280;16357;52.188;7.838;2024-03-23T13:01:19;99991.59;;;8.64;65.91
29371;BME280;16357;52.188;7.838;2024-03-23T13:03:48;99989.75;;;8.73;65.80
29371;BME280;16357;52.188;7.838;2024-03-23T13:06:14;99978.75;;;8.84;66.50
29371;BME280;16357;52.188;7.838;2024-03-23T13:08:40;99970.59;;;8.94;66.45
29371;BME280;16357;52.188;7.838;2024-03-23T13:11:09;99970.25;;;9.05;66.54
29371;BME280;16357;52.188;7.838;2024-03-23T13:13:39;99975.31;;;9.16;65.37
29371;BME280;16357;52.188;7.838;2024-03-23T13:16:04;99982.16;;;9.27;64.45
29371;BME280;16357;52.188;7.838;2024-03-23T13:18:31;100011.59;;;9.35;65.20
29371;BME280;16357;52.188;7.838;2024-03-23T13:20:58;99979.63;;;9.42;64.82
29371;BME280;16357;52.188;7.838;2024-03-23T13:23:24;99993.69;;;9.44;64.30
29371;BME280;16357;52.188;7.838;2024-03-23T13:25:53;99993.22;;;9.40;64.48
29371;BME280;16357;52.188;7.838;2024-03-23T13:28:20;99976.63;;;9.37;64.52
29371;BME280;16357;52.188;7.838;2024-03-23T13:30:52;99973.94;;;9.37;65.15
29371;BME280;16357;52.188;7.838;2024-03-23T13:33:18;99975.13;;;9.34;65.19
29371;BME280;16357;52.188;7.838;2024-03-23T13:35:54;99989.19;;;9.36;64.98
29371;BME280;16357;52.188;7.838;2024-03-23T13:38:20;99982.84;;;9.37;65.18
29371;BME280;16357;52.188;7.838;2024-03-23T13:40:53;99992.88;;;9.43;64.65
29371;BME280;16357;52.188;7.838;2024-03-23T13:43:19;99991.34;;;9.49;64.64
29371;BME280;16357;52.188;7.838;2024-03-23T13:45:48;99986.66;;;9.59;65.33
29371;BME280;16357;52.188;7.838;2024-03-23T13:48:15;99978.28;;;9.71;65.05
29371;BME280;16357;52.188;7.838;2024-03-23T13:50:41;99986.81;;;9.82;64.44
29371;BME280;16357;52.188;7.838;2024-03-23T13:53:06;99985.44;;;9.95;64.14